createdAt,value
2022-09-05T00:00:18.039Z,100871.25
2022-09-05T00:02:56.102Z,100879.28
2022-09-05T00:06:08.203Z,100886.38
2022-09-05T00:09:04.277Z,100872.06
2022-09-05T00:11:49.575Z,100876.47
2022-09-05T00:15:16.091Z,100889.91
2022-09-05T00:21:31.580Z,100888.13
2022-09-05T00:24:25.893Z,100905.03
2022-09-05T00:24:42.730Z,100911.25
2022-09-05T00:27:49.926Z,100905.88
2022-09-05T00:31:07.720Z,100898.75
2022-09-05T00:33:55.790Z,100900.59
2022-09-05T00:36:54.891Z,100911.31
2022-09-05T00:39:26.735Z,100905.09
2022-09-05T00:41:59.297Z,100902.41
2022-09-05T00:44:32.423Z,100907.72
2022-09-05T00:47:29.712Z,100909.47
2022-09-05T00:50:11.164Z,100915.75
2022-09-05T00:53:06.662Z,100916.66
2022-09-05T00:56:19.720Z,100931.75
2022-09-05T00:59:24.444Z,100941.50
2022-09-05T01:02:11.711Z,100931.78
2022-09-05T01:04:53.780Z,100939.78
2022-09-05T01:07:38.075Z,100935.34
2022-09-05T01:10:23.695Z,100938.00
2022-09-05T01:13:23.492Z,100933.59
2022-09-05T01:16:23.303Z,100939.78
2022-09-05T01:19:29.450Z,100946.88
2022-09-05T01:22:18.572Z,100945.97
2022-09-05T01:24:55.247Z,100930.03
2022-09-05T01:28:05.442Z,100943.34
2022-09-05T01:31:17.204Z,100932.69
2022-09-05T01:33:57.333Z,100953.09
2022-09-05T01:37:07.892Z,100954.00
2022-09-05T01:40:26.354Z,100958.44
2022-09-05T01:43:23.907Z,100956.66
2022-09-05T01:45:59.325Z,100958.41
2022-09-05T01:48:47.556Z,100968.16
2022-09-05T01:51:32.654Z,100967.28
2022-09-05T01:54:32.492Z,100961.91
2022-09-05T01:57:24.428Z,100963.63
2022-09-05T02:00:09.553Z,100976.94
2022-09-05T02:03:15.884Z,100979.66
2022-09-05T02:06:35.221Z,100999.25
2022-09-05T02:09:33.912Z,100994.78
2022-09-05T02:12:14.985Z,100998.34
2022-09-05T02:15:02.539Z,101013.47
2022-09-05T02:17:50.796Z,101019.66
2022-09-05T02:20:41.065Z,101005.44
2022-09-05T02:23:42.523Z,101022.31
2022-09-05T02:26:23.463Z,101020.53
2022-09-05T02:29:00.347Z,101023.16
2022-09-05T02:31:40.092Z,101034.72
2022-09-05T02:34:35.528Z,101026.72
2022-09-05T02:37:55.910Z,101032.03
2022-09-05T02:45:14.649Z,101013.28
2022-09-05T02:45:19.349Z,100997.38
2022-09-05T02:46:12.278Z,101000.84
2022-09-05T02:49:04.831Z,101001.72
2022-09-05T02:57:30.321Z,100995.53
2022-09-05T02:57:41.945Z,101003.47
2022-09-05T02:58:08.076Z,101009.63
2022-09-05T03:01:04.419Z,101018.44
2022-09-05T03:03:50.689Z,101021.97
2022-09-05T03:06:35.523Z,101031.75
2022-09-05T03:09:37.620Z,101035.34
2022-09-05T03:12:49.891Z,101030.13
2022-09-05T03:16:04.554Z,101031.81
2022-09-05T03:19:00.293Z,101035.34
2022-09-05T03:22:08.088Z,101043.31
2022-09-05T03:25:15.246Z,101054.00
2022-09-05T03:28:16.081Z,101053.09
2022-09-05T03:31:22.841Z,101052.16
2022-09-05T03:34:08.897Z,101046.84
2022-09-05T03:37:08.446Z,101045.91
2022-09-05T03:40:29.760Z,101057.38
2022-09-05T03:43:22.053Z,101047.66
2022-09-05T03:46:45.761Z,101045.09
2022-09-05T03:52:10.467Z,101054.72
2022-09-05T03:57:07.377Z,101052.06
2022-09-05T03:57:23.791Z,101063.66
2022-09-05T03:59:26.680Z,101066.25
2022-09-05T04:03:35.849Z,101073.34
2022-09-05T04:08:13.703Z,101067.16
2022-09-05T04:08:32.475Z,101070.66
2022-09-05T04:11:15.205Z,101062.72
2022-09-05T04:13:56.648Z,101062.81
2022-09-05T04:16:46.548Z,101060.06
2022-09-05T04:19:20.440Z,101062.66
2022-09-05T04:22:16.684Z,101077.66
2022-09-05T04:25:07.369Z,101078.53
2022-09-05T04:28:10.426Z,101088.31
2022-09-05T04:30:40.637Z,101098.16
2022-09-05T04:33:42.883Z,101090.97
2022-09-05T04:36:44.144Z,101098.03
2022-09-05T04:39:18.230Z,101104.28
2022-09-05T04:42:29.970Z,101108.81
2022-09-05T04:45:07.660Z,101110.53
2022-09-05T04:47:50.751Z,101103.38
2022-09-05T04:50:23.440Z,101098.09
2022-09-05T04:53:10.953Z,101111.41
2022-09-05T04:55:50.949Z,101132.69
2022-09-05T04:59:09.019Z,101144.31
2022-09-05T05:06:00.847Z,101151.44
2022-09-05T05:06:08.725Z,101142.59
2022-09-05T05:07:26.758Z,101146.13
2022-09-05T05:10:55.435Z,101148.84
2022-09-05T05:17:56.776Z,101145.28
2022-09-05T05:18:14.686Z,101138.22
2022-09-05T05:19:06.195Z,101148.88
2022-09-05T05:21:36.888Z,101158.59
2022-09-05T05:24:16.347Z,101158.63
2022-09-05T05:27:05.281Z,101164.03
2022-09-05T05:29:53.961Z,101165.78
2022-09-05T05:32:45.173Z,101186.34
2022-09-05T05:35:21.212Z,101183.75
2022-09-05T05:38:09.701Z,101187.22
2022-09-05T05:40:51.202Z,101195.19
2022-09-05T05:43:33.592Z,101198.63
2022-09-05T05:46:02.408Z,101195.97
2022-09-05T05:48:39.820Z,101197.81
2022-09-05T05:51:34.592Z,101203.16
2022-09-05T05:54:36.101Z,101208.50
2022-09-05T05:57:29.490Z,101218.25
2022-09-05T06:00:08.192Z,101212.13
2022-09-05T06:03:25.872Z,101211.31
2022-09-05T06:06:28.804Z,101207.81
2022-09-05T06:14:50.463Z,101221.19
2022-09-05T06:14:59.311Z,101223.88
2022-09-05T06:16:10.039Z,101226.59
2022-09-05T06:19:11.854Z,101237.28
2022-09-05T06:22:33.399Z,101255.97
2022-09-05T06:25:51.102Z,101260.44
2022-09-05T06:28:25.652Z,101269.44
2022-09-05T06:31:27.639Z,101252.56
2022-09-05T06:34:32.654Z,101256.13
2022-09-05T06:37:58.553Z,101252.56
2022-09-05T06:40:31.467Z,101240.97
2022-09-05T06:43:15.977Z,101247.22
2022-09-05T06:47:23.258Z,101236.47
2022-09-05T06:49:28.523Z,101232.88
2022-09-05T06:52:30.322Z,101241.75
2022-09-05T06:55:57.629Z,101227.44
2022-09-05T06:59:40.956Z,101223.75
2022-09-05T07:02:58.486Z,101213.81
2022-09-05T07:05:38.695Z,101201.22
2022-09-05T07:09:12.515Z,101190.50
2022-09-05T07:12:03.476Z,101194.88
2022-09-05T07:14:55.448Z,101201.03
2022-09-05T07:18:08.520Z,101212.53
2022-09-05T07:21:16.269Z,101192.91
2022-09-05T07:24:09.525Z,101191.78
2022-09-05T07:26:53.657Z,101197.03
2022-09-05T07:29:36.989Z,101199.69
2022-09-05T07:32:09.101Z,101187.13
2022-09-05T07:34:38.367Z,101198.31
2022-09-05T07:37:40.038Z,101181.22
2022-09-05T07:40:25.784Z,101185.72
2022-09-05T07:43:18.921Z,101189.19
2022-09-05T07:46:13.483Z,101196.28
2022-09-05T07:48:47.675Z,101202.09
2022-09-05T07:56:53.978Z,101196.59
2022-09-05T07:57:00.666Z,101185.81
2022-09-05T07:57:30.917Z,101163.66
2022-09-05T08:00:25.883Z,101185.50
2022-09-05T08:03:12.798Z,101198.25
2022-09-05T08:05:48.123Z,101190.19
2022-09-05T08:08:28.996Z,101195.31
2022-09-05T08:11:24.359Z,101203.66
2022-09-05T08:14:46.023Z,101179.91
2022-09-05T08:17:26.459Z,101160.97
2022-09-05T08:20:17.865Z,101140.97
2022-09-05T08:23:22.926Z,101123.69
2022-09-05T08:26:13.215Z,101148.91
2022-09-05T08:29:09.094Z,101126.97
2022-09-05T08:32:08.677Z,101076.53
2022-09-05T08:35:07.233Z,101065.06
2022-09-05T08:37:35.798Z,101114.03
2022-09-05T08:40:15.944Z,101065.09
2022-09-05T08:46:38.064Z,101067.31
2022-09-05T08:46:48.244Z,101130.88
2022-09-05T08:49:46.381Z,101054.63
2022-09-05T08:52:20.576Z,101012.53
2022-09-05T08:55:14.605Z,101032.28
2022-09-05T08:57:45.989Z,101081.47
2022-09-05T09:00:24.341Z,100990.94
2022-09-05T09:03:11.936Z,100982.59
2022-09-05T09:06:11.941Z,100986.00
2022-09-05T09:09:06.942Z,101025.94
2022-09-05T09:11:56.557Z,100944.84
2022-09-05T09:14:40.528Z,101047.03
2022-09-05T09:17:37.917Z,101007.66
2022-09-05T09:20:09.713Z,101034.56
2022-09-05T09:23:00.958Z,101023.03
2022-09-05T09:25:40.013Z,100982.84
2022-09-05T09:28:47.789Z,101028.94
2022-09-05T09:31:40.047Z,100981.53
2022-09-05T09:34:26.431Z,100955.47
2022-09-05T09:37:35.590Z,100919.34
2022-09-05T09:40:47.682Z,100873.91
2022-09-05T09:43:53.224Z,100865.50
2022-09-05T09:46:46.426Z,100872.59
2022-09-05T09:49:22.748Z,100857.06
2022-09-05T09:52:20.935Z,100898.19
2022-09-05T09:55:02.070Z,100969.22
2022-09-05T09:57:45.822Z,100910.50
2022-09-05T10:00:21.410Z,100837.66
2022-09-05T10:07:59.505Z,100875.38
2022-09-05T10:10:39.192Z,100898.06
2022-09-05T10:10:49.034Z,100860.13
2022-09-05T10:12:53.367Z,100824.69
2022-09-05T10:16:27.238Z,100757.31
2022-09-05T10:19:16.266Z,100804.13
2022-09-05T10:22:38.038Z,100801.59
2022-09-05T10:26:09.944Z,100762.56
2022-09-05T10:29:48.388Z,100771.81
2022-09-05T10:35:18.285Z,100788.53
2022-09-05T10:36:39.958Z,100881.97
2022-09-05T10:39:39.673Z,100801.78
2022-09-05T10:42:59.779Z,100753.44
2022-09-05T10:46:01.161Z,100628.38
2022-09-05T10:48:54.644Z,100569.16
2022-09-05T10:52:17.940Z,100615.41
2022-09-05T10:55:36.551Z,100696.78
2022-09-05T11:00:30.611Z,100580.44
2022-09-05T11:02:27.747Z,100594.69
2022-09-05T11:05:24.568Z,100631.00
2022-09-05T11:08:08.182Z,100628.09
2022-09-05T11:10:37.939Z,100533.38
2022-09-05T11:13:10.510Z,100645.50
2022-09-05T11:16:04.521Z,100558.47
2022-09-05T11:19:05.478Z,100463.78
2022-09-05T11:22:13.769Z,100494.59
2022-09-05T11:25:01.188Z,100500.94
2022-09-05T11:27:41.280Z,100445.53
2022-09-05T11:30:31.002Z,100303.91
2022-09-05T11:38:43.961Z,100326.19
2022-09-05T11:40:00.279Z,100316.50
2022-09-05T11:40:31.184Z,100376.31
2022-09-05T11:43:15.962Z,100350.00
2022-09-05T11:46:19.516Z,100318.41
2022-09-05T11:49:02.327Z,100271.31
2022-09-05T11:51:49.436Z,100350.78
2022-09-05T11:54:48.006Z,100362.19
2022-09-05T11:58:43.873Z,100350.53
2022-09-05T12:01:42.041Z,100364.69
2022-09-05T12:04:08.114Z,100325.56
2022-09-05T12:07:32.357Z,100256.75
2022-09-05T12:10:46.140Z,100261.66
2022-09-05T12:13:52.660Z,100211.09
2022-09-05T12:17:34.740Z,100216.06
2022-09-05T12:20:43.223Z,100214.56
2022-09-05T12:23:47.583Z,100120.66
2022-09-05T12:27:41.798Z,100073.81
2022-09-05T12:29:38.734Z,100011.81
2022-09-05T12:33:39.390Z,100076.56
2022-09-05T12:36:13.011Z,100093.88
2022-09-05T12:40:00.931Z,100063.47
2022-09-05T12:41:44.425Z,100076.75
2022-09-05T12:44:41.691Z,99982.81
2022-09-05T12:47:20.097Z,99950.06
2022-09-05T12:50:18.400Z,99894.94
2022-09-05T12:52:52.204Z,99998.31
2022-09-05T12:55:47.051Z,99943.09
2022-09-05T13:02:58.598Z,99985.53
2022-09-05T13:03:06.074Z,100021.94
2022-09-05T13:04:32.271Z,99895.03
2022-09-05T13:07:08.229Z,100016.19
2022-09-05T13:10:00.641Z,99926.34
2022-09-05T13:14:50.918Z,99892.28
2022-09-05T13:15:40.313Z,99887.22
2022-09-05T13:18:18.382Z,99811.69
2022-09-05T13:21:08.599Z,99820.50
2022-09-05T13:24:06.870Z,99731.44
2022-09-05T13:27:05.766Z,99719.84
2022-09-05T13:32:57.380Z,99743.66
2022-09-05T13:37:56.661Z,99711.81
2022-09-05T13:38:09.899Z,99658.81
2022-09-05T13:39:13.197Z,99627.28
2022-09-05T13:41:56.815Z,99545.06
2022-09-05T13:44:27.517Z,99629.91
2022-09-05T13:47:29.472Z,99554.09
2022-09-05T13:50:20.028Z,99476.97
2022-09-05T13:53:15.456Z,99507.56
2022-09-05T13:55:54.873Z,99533.47
2022-09-05T13:58:56.714Z,99547.56
2022-09-05T14:01:39.604Z,99495.94
2022-09-05T14:08:05.073Z,99437.63
2022-09-05T14:10:57.581Z,99437.63
2022-09-05T14:14:00.274Z,99465.75
2022-09-05T14:16:49.868Z,99387.66
2022-09-05T14:19:43.365Z,99443.09
2022-09-05T14:22:46.140Z,99383.19
2022-09-05T14:25:43.213Z,99299.28
2022-09-05T14:28:40.914Z,99319.97
2022-09-05T14:37:36.803Z,99486.84
2022-09-05T14:37:41.283Z,99387.09
2022-09-05T14:38:13.730Z,99412.69
2022-09-05T14:41:11.853Z,99457.63
2022-09-05T14:44:10.652Z,99407.50
2022-09-05T14:47:32.412Z,99385.66
2022-09-05T14:50:27.605Z,99387.31
2022-09-05T14:57:23.260Z,99360.91
2022-09-05T15:02:52.077Z,99370.13
2022-09-05T15:02:52.810Z,99396.28
2022-09-05T15:05:16.079Z,99455.03
2022-09-05T15:07:44.949Z,99472.78
2022-09-05T15:12:18.207Z,99375.31
2022-09-05T15:13:25.722Z,99298.91
2022-09-05T15:16:09.268Z,99301.44
2022-09-05T15:18:46.638Z,99370.25
2022-09-05T15:21:33.198Z,99281.13
2022-09-05T15:24:14.896Z,99343.59
2022-09-05T15:26:58.816Z,99388.00
2022-09-05T15:29:34.386Z,99249.19
2022-09-05T15:32:22.621Z,99360.31
2022-09-05T15:34:55.439Z,99249.47
2022-09-05T15:37:40.716Z,99405.22
2022-09-05T15:40:21.916Z,99296.41
2022-09-05T15:42:59.432Z,99279.91
2022-09-05T15:45:38.415Z,99273.72
2022-09-05T15:48:26.549Z,99274.69
2022-09-05T15:51:17.242Z,99305.97
2022-09-05T15:53:45.661Z,99223.22
2022-09-05T15:56:15.811Z,99298.22
2022-09-05T15:59:11.305Z,99364.34
2022-09-05T16:01:59.601Z,99344.41
2022-09-05T16:07:39.207Z,99240.81
2022-09-05T16:10:36.896Z,99296.25
2022-09-05T16:10:57.870Z,99223.00
2022-09-05T16:13:52.293Z,99304.81
2022-09-05T16:23:21.146Z,99356.97
2022-09-05T16:23:30.261Z,99142.13
2022-09-05T16:23:30.267Z,99362.31
2022-09-05T16:25:29.807Z,99208.09
2022-09-05T16:28:29.960Z,99249.75
2022-09-05T16:31:17.471Z,99297.66
2022-09-05T16:33:48.243Z,99370.13
2022-09-05T16:36:36.806Z,99318.00
2022-09-05T16:39:17.007Z,99334.50
2022-09-05T16:42:09.474Z,99296.28
2022-09-05T16:44:49.606Z,99344.22
2022-09-05T16:47:36.476Z,99358.91
2022-09-05T16:50:24.011Z,99380.22
2022-09-05T16:52:54.270Z,99249.84
2022-09-05T16:55:46.567Z,99263.72
2022-09-05T16:58:44.237Z,99304.66
2022-09-05T17:01:30.808Z,99241.13
2022-09-05T17:05:03.395Z,99406.97
2022-09-05T17:08:01.214Z,99395.16
2022-09-05T17:10:42.513Z,99392.41
2022-09-05T17:13:36.743Z,99349.09
2022-09-05T17:16:09.661Z,99372.53
2022-09-05T17:18:38.799Z,99414.78
2022-09-05T17:21:28.443Z,99386.91
2022-09-05T17:29:16.083Z,99391.94
2022-09-05T17:29:31.925Z,99414.97
2022-09-05T17:33:38.308Z,99404.31
2022-09-05T17:36:40.993Z,99401.94
2022-09-05T17:39:44.542Z,99431.09
2022-09-05T17:42:32.697Z,99446.44
2022-09-05T17:45:44.863Z,99423.28
2022-09-05T17:48:16.607Z,99484.34
2022-09-05T17:50:51.240Z,99489.47
2022-09-05T17:53:26.090Z,99493.69
2022-09-05T17:55:56.298Z,99499.38
2022-09-05T17:58:41.209Z,99535.03
2022-09-05T18:01:26.410Z,99557.88
2022-09-05T18:04:15.957Z,99593.97
2022-09-05T18:06:59.029Z,99620.63
2022-09-05T18:09:40.347Z,99641.38
2022-09-05T18:15:32.737Z,99682.19
2022-09-05T18:18:02.741Z,99685.56
2022-09-05T18:21:21.785Z,99698.69
2022-09-05T18:24:12.012Z,99714.06
2022-09-05T18:26:45.755Z,99725.91
2022-09-05T18:29:28.686Z,99750.31
2022-09-05T18:33:56.214Z,99766.00
2022-09-05T18:35:54.420Z,99810.69
2022-09-05T18:38:51.654Z,99824.88
2022-09-05T18:41:27.818Z,99816.97
2022-09-05T18:44:13.699Z,99846.28
2022-09-05T18:46:52.568Z,99862.88
2022-09-05T18:50:21.393Z,99882.00
2022-09-05T18:52:33.334Z,99922.66
2022-09-05T18:56:09.902Z,99937.41
2022-09-05T18:58:09.448Z,99947.69
2022-09-05T19:00:44.473Z,99980.75
2022-09-05T19:03:30.458Z,99974.75
2022-09-05T19:06:35.800Z,99995.50
2022-09-05T19:09:14.576Z,100022.09
2022-09-05T19:12:01.608Z,100022.59
2022-09-05T19:14:53.795Z,100042.13
2022-09-05T19:17:39.352Z,100071.00
2022-09-05T19:20:31.633Z,100063.31
2022-09-05T19:23:11.120Z,100085.25
2022-09-05T19:25:54.564Z,100128.75
2022-09-05T19:36:44.645Z,100145.53
2022-09-05T19:36:57.699Z,100145.03
2022-09-05T19:37:22.217Z,100148.75
2022-09-05T19:37:29.716Z,100157.72
2022-09-05T19:44:50.328Z,100171.78
2022-09-05T19:47:43.283Z,100185.00
2022-09-05T19:47:57.819Z,100205.81
2022-09-05T19:48:34.968Z,100221.91
2022-09-05T19:51:17.871Z,100226.97
2022-09-05T19:54:05.557Z,100226.50
2022-09-05T19:56:46.678Z,100238.75
2022-09-05T19:59:38.280Z,100235.06
2022-09-05T20:02:51.432Z,100238.44
2022-09-05T20:05:22.274Z,100219.88
2022-09-05T20:07:55.025Z,100246.00
2022-09-05T20:10:32.374Z,100244.13
2022-09-05T20:13:20.010Z,100237.78
2022-09-05T20:15:48.597Z,100259.16
2022-09-05T20:18:40.653Z,100267.81
2022-09-05T20:21:28.501Z,100271.81
2022-09-05T20:23:59.854Z,100272.69
2022-09-05T20:26:30.772Z,100276.69
2022-09-05T20:29:02.545Z,100279.16
2022-09-05T20:31:34.337Z,100302.88
2022-09-05T20:35:42.101Z,100314.66
2022-09-05T20:43:16.951Z,100321.19
2022-09-05T20:43:18.015Z,100310.38
2022-09-05T20:43:25.125Z,100312.69
2022-09-05T20:46:00.808Z,100321.13
2022-09-05T20:54:10.095Z,100325.50
2022-09-05T20:54:18.858Z,100339.38
2022-09-05T20:54:34.897Z,100350.69
2022-09-05T20:57:28.816Z,100356.97
2022-09-05T21:00:14.317Z,100379.94
2022-09-05T21:02:58.725Z,100373.56
2022-09-05T21:05:35.620Z,100378.69
2022-09-05T21:08:34.636Z,100383.03
2022-09-05T21:11:05.894Z,100392.66
2022-09-05T21:13:52.781Z,100382.34
2022-09-05T21:16:28.202Z,100387.59
2022-09-05T21:18:56.250Z,100391.88
2022-09-05T21:21:30.854Z,100389.72
2022-09-05T21:24:16.744Z,100389.03
2022-09-05T21:26:48.548Z,100394.16
2022-09-05T21:29:25.115Z,100401.59
2022-09-05T21:32:07.913Z,100405.78
2022-09-05T21:34:49.561Z,100414.66
2022-09-05T21:37:19.249Z,100408.66
2022-09-05T21:39:59.705Z,100411.75
2022-09-05T21:42:39.133Z,100431.06
2022-09-05T21:47:47.785Z,100437.78
2022-09-05T21:48:15.213Z,100443.56
2022-09-05T21:50:52.192Z,100451.34
2022-09-05T21:56:41.551Z,100443.75
2022-09-05T21:59:28.595Z,100460.84
2022-09-05T22:02:08.431Z,100467.06
2022-09-05T22:04:41.582Z,100471.81
2022-09-05T22:07:32.523Z,100478.97
2022-09-05T22:10:04.334Z,100484.94
2022-09-05T22:12:39.390Z,100470.25
2022-09-05T22:15:27.168Z,100463.34
2022-09-05T22:18:16.618Z,100453.53
2022-09-05T22:20:57.227Z,100442.63
2022-09-05T22:23:40.741Z,100455.38
2022-09-05T22:26:09.046Z,100442.59
2022-09-05T22:28:38.905Z,100437.34
2022-09-05T22:31:07.889Z,100443.63
2022-09-05T22:33:36.601Z,100449.94
2022-09-05T22:36:05.077Z,100450.09
2022-09-05T22:38:33.488Z,100450.41
2022-09-05T22:41:06.052Z,100463.13
2022-09-05T22:43:34.469Z,100461.28
2022-09-05T22:46:03.746Z,100472.25
2022-09-05T22:48:31.912Z,100461.13
2022-09-05T22:50:59.883Z,100454.84
2022-09-05T22:53:27.709Z,100431.00
2022-09-05T22:56:00.182Z,100423.72
2022-09-05T22:58:28.866Z,100423.75
2022-09-05T23:00:57.062Z,100428.13
2022-09-05T23:03:25.013Z,100445.09
2022-09-05T23:05:53.281Z,100428.66
2022-09-05T23:08:21.235Z,100433.09
2022-09-05T23:10:49.178Z,100423.97
2022-09-05T23:13:17.090Z,100425.13
2022-09-05T23:15:45.031Z,100425.13
2022-09-05T23:18:13.013Z,100426.75
2022-09-05T23:20:40.938Z,100435.94
2022-09-05T23:23:09.014Z,100432.63
2022-09-05T23:25:37.547Z,100448.50
2022-09-05T23:28:10.141Z,100447.50
2022-09-05T23:30:39.539Z,100443.94
2022-09-05T23:33:09.672Z,100451.03
2022-09-05T23:35:38.080Z,100457.47
2022-09-05T23:38:11.278Z,100456.44
2022-09-05T23:40:39.686Z,100448.25
2022-09-05T23:43:08.470Z,100458.75
2022-09-05T23:45:36.446Z,100459.25
2022-09-05T23:48:04.763Z,100455.34
2022-09-05T23:50:32.989Z,100462.28
2022-09-05T23:53:04.795Z,100469.59
2022-09-05T23:55:32.925Z,100467.72
2022-09-05T23:58:00.981Z,100475.25
